Time;durP1;ratioP1;P1;durP2;ratioP2;P2;SDS_P1;SDS_P2;PMS_P1;PMS_P2;Temp;Humidity;BMP_temperature;BMP_pressure;BME280_temperature;BME280_humidity;BME280_pressure;Samples;Min_cycle;Max_cycle;Signal;HPM_P1;HPM_P2
2022/09/23 00:01:20;;;;;;;6.40;5.70;;;;;;;8.62;100.00;101653.09;6123885;23;20220;-75
2022/09/23 00:03:47;;;;;;;8.77;5.60;;;;;;;8.60;100.00;101608.63;6148769;23;20769;-75
2022/09/23 00:06:19;;;;;;;6.10;5.40;;;;;;;9.04;100.00;101706.44;6125449;23;20593;-75
2022/09/23 00:08:45;;;;;;;5.73;5.20;;;;;;;8.44;100.00;101613.97;6151428;23;20365;-75
2022/09/23 00:11:17;;;;;;;6.10;5.60;;;;;;;8.35;100.00;101618.44;6125406;23;20467;-75
2022/09/23 00:13:44;;;;;;;7.03;6.03;;;;;;;8.57;100.00;101603.63;6150033;23;20196;-75
2022/09/23 00:16:13;;;;;;;7.03;5.40;;;;;;;9.95;100.00;101839.25;6125389;23;20434;-76
2022/09/23 00:18:39;;;;;;;5.20;4.70;;;;;;;8.35;100.00;101599.72;6149958;23;20813;-75
2022/09/23 00:21:07;;;;;;;5.60;5.10;;;;;;;9.69;100.00;101783.19;6125717;23;20781;-75
2022/09/23 00:23:33;;;;;;;6.37;5.70;;;;;;;8.89;100.00;101684.03;6123183;23;20436;-75
2022/09/23 00:26:01;;;;;;;9.20;5.53;;;;;;;8.52;100.00;101615.81;6151937;23;20384;-75
2022/09/23 00:28:27;;;;;;;7.83;6.00;;;;;;;9.68;100.00;101778.84;6123691;23;20176;-75
2022/09/23 00:30:53;;;;;;;6.77;6.07;;;;;;;8.38;100.00;101610.13;6151506;23;20887;-76
2022/09/23 00:33:18;;;;;;;6.10;5.60;;;;;;;9.32;100.00;101725.69;6125508;23;20384;-75
2022/09/23 00:35:44;;;;;;;5.20;4.77;;;;;;;9.67;100.00;101826.25;6123806;23;20401;-75
2022/09/23 00:38:09;;;;;;;6.23;5.23;;;;;;;8.87;100.00;101675.34;6147167;23;20164;-75
2022/09/23 00:40:37;;;;;;;6.57;5.73;;;;;;;7.48;100.00;101441.66;6149654;23;20169;-75
2022/09/23 00:43:04;;;;;;;6.70;6.00;;;;;;;9.01;100.00;101722.84;6122680;23;20526;-75
2022/09/23 00:45:31;;;;;;;6.07;5.50;;;;;;;8.90;100.00;101726.66;6121653;23;20463;-75
2022/09/23 00:48:00;;;;;;;8.00;5.60;;;;;;;7.73;100.00;101502.28;6125147;23;20392;-75
2022/09/23 00:50:37;;;;;;;6.43;5.27;;;;;;;8.45;100.00;101594.28;6146427;23;20478;-75
2022/09/23 00:53:06;;;;;;;6.37;5.33;;;;;;;9.81;100.00;101816.69;6124266;23;20385;-75
2022/09/23 00:55:35;;;;;;;5.80;5.30;;;;;;;7.64;100.00;101478.25;6120907;23;20391;-75
2022/09/23 00:58:04;;;;;;;6.10;5.50;;;;;;;8.21;100.00;101603.03;6150298;23;20377;-75
2022/09/23 01:00:30;;;;;;;6.53;5.87;;;;;;;9.11;100.00;101736.88;6121987;23;20762;-74
2022/09/23 01:02:56;;;;;;;7.00;5.43;;;;;;;9.23;100.00;101738.25;6149182;23;20373;-75
2022/09/23 01:05:22;;;;;;;5.77;5.23;;;;;;;8.02;100.00;101601.53;6123646;23;20571;-75
2022/09/23 01:07:48;;;;;;;5.90;5.33;;;;;;;7.85;100.00;101493.78;6122218;23;20180;-75
2022/09/23 01:10:15;;;;;;;7.70;5.40;;;;;;;9.01;100.00;101709.47;6150320;23;20380;-75
2022/09/23 01:13:14;;;;;;;6.30;5.70;;;;;;;8.12;100.00;101554.09;6123376;23;20734;-75
2022/09/23 01:15:49;;;;;;;5.57;5.07;;;;;;;10.58;100.00;101900.13;6123636;23;20852;-75
2022/09/23 01:18:26;;;;;;;6.70;6.10;;;;;;;10.37;100.00;101895.34;6121714;23;20800;-75
2022/09/23 01:21:18;;;;;;;6.30;5.53;;;;;;;7.99;100.00;101508.34;6148878;23;20396;-75
2022/09/23 01:24:01;;;;;;;7.40;6.13;;;;;;;10.53;100.00;101888.25;6150250;23;20409;-76
2022/09/23 01:26:45;;;;;;;5.80;5.20;;;;;;;10.52;100.00;101886.59;6121100;23;20396;-76
2022/09/23 01:29:48;;;;;;;5.60;5.10;;;;;;;10.29;100.00;101889.16;6148427;23;20387;-76
2022/09/23 01:32:30;;;;;;;11.80;5.93;;;;;;;10.19;100.00;101889.31;6117713;23;20681;-76
2022/09/23 01:35:18;;;;;;;6.20;5.70;;;;;;;10.04;100.00;101885.66;6119838;23;20384;-76
2022/09/23 01:38:10;;;;;;;5.60;5.10;;;;;;;9.54;100.00;101783.06;6092964;23;20388;-76
2022/09/23 01:40:35;;;;;;;5.50;5.00;;;;;;;10.28;100.00;101872.25;6110350;23;20505;-75
2022/09/23 01:43:10;;;;;;;7.40;6.23;;;;;;;8.66;100.00;101651.78;6134536;23;20389;-76
2022/09/23 01:45:45;;;;;;;6.63;6.03;;;;;;;8.19;100.00;101577.47;6124580;23;20160;-76
2022/09/23 01:48:20;;;;;;;6.57;5.97;;;;;;;8.92;100.00;101686.38;6128075;23;20911;-75
2022/09/23 01:51:01;;;;;;;7.00;5.63;;;;;;;8.01;100.00;101492.13;6153620;23;20442;-76
2022/09/23 01:53:36;;;;;;;6.90;6.20;;;;;;;8.19;100.00;101532.91;6152661;23;20361;-76
2022/09/23 01:56:08;;;;;;;10.30;6.30;;;;;;;9.15;100.00;101742.75;6123535;23;20922;-75
2022/09/23 01:58:52;;;;;;;6.50;5.90;;;;;;;8.09;100.00;101559.78;6122797;23;20730;-75
2022/09/23 02:01:43;;;;;;;8.10;6.03;;;;;;;8.18;100.00;101576.66;6123672;23;20471;-75
2022/09/23 02:04:23;;;;;;;8.20;6.63;;;;;;;10.40;100.00;101897.69;6122679;23;20420;-75
2022/09/23 02:06:55;;;;;;;6.60;5.90;;;;;;;8.31;100.00;101550.28;6124366;23;20381;-75
2022/09/23 02:09:28;;;;;;;6.97;6.30;;;;;;;7.88;100.00;101471.25;6125019;23;20377;-75
2022/09/23 02:12:04;;;;;;;6.50;5.90;;;;;;;7.89;100.00;101471.09;6151567;23;20389;-75
2022/09/23 02:14:36;;;;;;;7.33;6.50;;;;;;;10.10;100.00;101882.31;6123826;23;20384;-75
2022/09/23 02:17:08;;;;;;;7.00;6.33;;;;;;;10.13;100.00;101911.47;6150522;23;20718;-75
2022/09/23 02:19:53;;;;;;;7.43;6.07;;;;;;;9.19;100.00;101749.44;6151564;23;20844;-75
2022/09/23 02:22:37;;;;;;;8.50;6.60;;;;;;;8.05;100.00;101542.41;6123491;23;20468;-75
2022/09/23 02:25:03;;;;;;;7.73;6.53;;;;;;;7.72;100.00;101508.63;6123607;23;20759;-74
2022/09/23 02:27:35;;;;;;;7.87;7.07;;;;;;;9.30;100.00;101730.38;6148668;23;20381;-75
2022/09/23 02:30:00;;;;;;;7.57;6.77;;;;;;;9.66;100.00;101768.31;6122408;23;20546;-75
2022/09/23 02:32:29;;;;;;;8.10;7.20;;;;;;;10.03;100.00;101851.81;6147555;23;20372;-75
2022/09/23 02:35:17;;;;;;;8.03;6.53;;;;;;;10.14;100.00;101846.09;6149529;23;20181;-75
2022/09/23 02:38:11;;;;;;;9.50;6.60;;;;;;;10.05;100.00;101831.88;6149287;23;20372;-75
2022/09/23 02:40:42;;;;;;;18.10;7.40;;;;;;;10.10;100.00;101826.03;6149699;23;20396;-75
2022/09/23 02:43:32;;;;;;;9.83;7.80;;;;;;;8.47;100.00;101584.22;6123756;23;20385;-75
2022/09/23 02:45:58;;;;;;;8.23;7.13;;;;;;;8.78;100.00;101680.69;6130532;23;20397;-75
2022/09/23 02:48:34;;;;;;;7.63;6.93;;;;;;;8.27;100.00;101583.66;6122031;23;20452;-75
2022/09/23 02:51:02;;;;;;;8.40;6.97;;;;;;;7.58;100.00;101425.50;6148894;23;20183;-74
2022/09/23 02:53:29;;;;;;;9.13;6.30;;;;;;;8.59;100.00;101632.84;6149614;23;20380;-75
2022/09/23 02:55:55;;;;;;;6.90;6.30;;;;;;;7.72;100.00;101456.03;6148396;23;20428;-75
2022/09/23 02:58:20;;;;;;;6.93;6.20;;;;;;;8.47;100.00;101608.28;6123133;23;20392;-75
2022/09/23 03:01:10;;;;;;;6.73;6.13;;;;;;;7.75;100.00;101522.47;6147064;23;20412;-75
2022/09/23 03:03:53;;;;;;;7.90;6.53;;;;;;;8.12;100.00;101553.25;6148869;23;20199;-75
2022/09/23 03:06:47;;;;;;;7.30;6.40;;;;;;;8.40;100.00;101553.00;6149989;23;20361;-75
2022/09/23 03:09:36;;;;;;;9.63;6.43;;;;;;;8.98;100.00;101632.19;6022268;23;20439;-76
2022/09/23 03:12:11;;;;;;;7.20;6.40;;;;;;;9.09;100.00;101697.94;6124868;23;20786;-76
2022/09/23 03:15:11;;;;;;;6.97;6.30;;;;;;;9.83;100.00;101798.56;6125761;23;20382;-76
2022/09/23 03:17:49;;;;;;;7.33;5.90;;;;;;;8.16;100.00;101567.97;6124803;23;20384;-76
2022/09/23 03:20:30;;;;;;;6.93;6.20;;;;;;;9.64;100.00;101788.25;6150188;23;20365;-76
2022/09/23 03:23:01;;;;;;;6.30;5.70;;;;;;;8.18;100.00;101565.97;6150071;23;20369;-76
2022/09/23 03:25:30;;;;;;;6.50;5.90;;;;;;;8.60;100.00;101578.38;6126178;23;20492;-76
2022/09/23 03:27:59;;;;;;;7.20;6.00;;;;;;;9.74;100.00;101783.53;6124724;23;20396;-75
2022/09/23 03:30:26;;;;;;;9.20;6.40;;;;;;;7.55;100.00;101431.19;6124189;23;20535;-75
2022/09/23 03:32:54;;;;;;;7.60;5.60;;;;;;;8.05;100.00;101555.78;6149163;23;20780;-73
2022/09/23 03:35:23;;;;;;;7.60;7.00;;;;;;;8.85;100.00;101672.00;6149910;23;20369;-73
2022/09/23 03:37:59;;;;;;;6.40;5.90;;;;;;;8.41;100.00;101608.13;6151946;23;20377;-76
2022/09/23 03:40:30;;;;;;;8.30;6.03;;;;;;;9.61;100.00;101778.72;6154991;23;20487;-76
2022/09/23 03:42:57;;;;;;;6.73;6.10;;;;;;;8.26;100.00;101621.28;6126676;23;20877;-75
2022/09/23 03:45:29;;;;;;;7.40;6.70;;;;;;;8.54;100.00;101648.59;6126178;23;20427;-75
2022/09/23 03:47:55;;;;;;;7.10;6.40;;;;;;;7.14;100.00;101452.38;6150035;23;20448;-76
2022/09/23 03:50:21;;;;;;;6.73;6.03;;;;;;;8.00;100.00;101608.03;6123471;23;20500;-75
2022/09/23 03:52:49;;;;;;;7.17;6.03;;;;;;;7.50;100.00;101537.59;6126281;23;20624;-75
2022/09/23 03:55:16;;;;;;;8.20;6.43;;;;;;;7.05;100.00;101388.50;6125502;23;20236;-76
2022/09/23 03:57:43;;;;;;;7.80;6.20;;;;;;;9.41;100.00;101801.47;6153439;23;20385;-75
2022/09/23 04:00:10;;;;;;;7.57;6.70;;;;;;;7.17;100.00;101443.22;6126068;23;20544;-76
2022/09/23 04:02:36;;;;;;;7.83;6.87;;;;;;;6.68;100.00;101347.03;6152008;23;20380;-76
2022/09/23 04:05:01;;;;;;;6.43;5.83;;;;;;;8.38;100.00;101642.19;6152769;23;21130;-76
2022/09/23 04:07:27;;;;;;;6.70;6.10;;;;;;;7.79;100.00;101547.03;6127358;23;20273;-76
2022/09/23 04:09:52;;;;;;;6.53;5.93;;;;;;;6.93;100.00;101367.47;6126246;23;20168;-75
2022/09/23 04:12:18;;;;;;;8.73;5.87;;;;;;;8.73;100.00;101658.13;6151844;23;20679;-75
2022/09/23 04:14:43;;;;;;;7.93;7.07;;;;;;;8.43;100.00;101628.34;6148868;23;20153;-75
2022/09/23 04:17:10;;;;;;;6.97;6.20;;;;;;;7.86;100.00;101554.22;6122916;23;20596;-75
2022/09/23 04:19:36;;;;;;;6.83;6.10;;;;;;;7.37;100.00;101483.81;6126142;23;20539;-76
2022/09/23 04:22:02;;;;;;;7.67;6.77;;;;;;;8.31;100.00;101659.03;6151346;23;20401;-76
2022/09/23 04:24:28;;;;;;;8.73;6.33;;;;;;;7.57;100.00;101535.13;6125375;23;20188;-76
2022/09/23 04:26:55;;;;;;;7.30;6.10;;;;;;;6.99;100.00;101398.00;6127979;23;20424;-76
2022/09/23 04:29:21;;;;;;;7.47;6.67;;;;;;;6.13;100.00;101286.19;6126968;23;20248;-76
2022/09/23 04:31:47;;;;;;;9.90;6.80;;;;;;;6.46;100.00;101391.94;6151719;23;20408;-75
2022/09/23 04:34:14;;;;;;;10.83;7.10;;;;;;;7.23;100.00;101490.63;6122744;23;20373;-75
2022/09/23 04:36:41;;;;;;;9.27;6.67;;;;;;;6.60;100.00;101357.69;6123632;23;20596;-75
2022/09/23 04:39:06;;;;;;;7.33;6.40;;;;;;;7.10;100.00;101455.56;6124121;23;20472;-75
2022/09/23 04:41:32;;;;;;;8.23;6.40;;;;;;;8.01;100.00;101601.66;6149411;23;20999;-75
2022/09/23 04:43:57;;;;;;;6.40;5.43;;;;;;;6.72;100.00;101396.41;6124448;23;20686;-75
2022/09/23 04:46:23;;;;;;;7.40;6.70;;;;;;;8.95;100.00;101771.69;6150748;23;20157;-75
2022/09/23 04:48:49;;;;;;;7.63;6.83;;;;;;;8.98;100.00;101779.38;6149884;23;20177;-75
2022/09/23 04:51:18;;;;;;;7.33;6.63;;;;;;;7.04;100.00;101459.72;6149451;23;20200;-75
2022/09/23 04:53:46;;;;;;;7.00;6.40;;;;;;;6.85;100.00;101395.94;6149488;23;20180;-75
2022/09/23 04:56:14;;;;;;;8.37;7.00;;;;;;;8.11;100.00;101611.22;6150493;23;20380;-76
2022/09/23 04:58:40;;;;;;;7.37;6.67;;;;;;;7.99;100.00;101582.31;6150195;23;20477;-75
2022/09/23 05:01:14;;;;;;;8.33;6.47;;;;;;;7.16;100.00;101468.25;6147725;23;20796;-68
2022/09/23 05:03:40;;;;;;;7.43;6.63;;;;;;;9.00;100.00;101754.13;6088197;23;20422;-68
2022/09/23 05:06:09;;;;;;;8.67;6.40;;;;;;;8.55;100.00;101675.16;6118689;23;20791;-68
2022/09/23 05:08:35;;;;;;;6.70;6.10;;;;;;;9.14;100.00;101743.75;6091898;23;20393;-69
2022/09/23 05:11:06;;;;;;;7.13;6.03;;;;;;;8.49;100.00;101681.16;6119016;23;20912;-68
2022/09/23 05:13:32;;;;;;;7.63;6.30;;;;;;;8.36;100.00;101656.69;6089641;23;20177;-69
2022/09/23 05:16:10;;;;;;;6.60;6.00;;;;;;;8.91;100.00;101759.59;6087861;23;20462;-68
2022/09/23 05:18:41;;;;;;;6.87;6.27;;;;;;;8.91;100.00;101756.94;6092216;23;20794;-69
2022/09/23 05:21:16;;;;;;;6.93;6.33;;;;;;;9.01;100.00;101752.28;6091368;23;20453;-69
2022/09/23 05:23:45;;;;;;;7.17;6.47;;;;;;;8.35;100.00;101652.34;6119286;23;20405;-69
2022/09/23 05:26:12;;;;;;;7.60;6.53;;;;;;;8.98;100.00;101749.94;6114373;23;20386;-69
2022/09/23 05:28:38;;;;;;;6.10;5.60;;;;;;;8.17;100.00;101606.22;6088035;23;20394;-69
2022/09/23 05:31:11;;;;;;;7.43;5.83;;;;;;;8.97;100.00;101729.53;6113558;23;20868;-69
2022/09/23 05:33:36;;;;;;;6.67;5.90;;;;;;;8.53;100.00;101677.16;6088478;23;20377;-69
2022/09/23 05:36:03;;;;;;;7.43;6.50;;;;;;;8.40;100.00;101659.94;6112275;23;20811;-69
2022/09/23 05:38:29;;;;;;;6.53;5.93;;;;;;;8.38;100.00;101663.59;6114929;23;20162;-69
2022/09/23 05:40:55;;;;;;;6.73;5.63;;;;;;;9.00;100.00;101764.00;6113535;23;20416;-69
2022/09/23 05:43:21;;;;;;;6.60;5.90;;;;;;;8.99;100.00;101738.22;6088387;23;20891;-69
2022/09/23 05:45:46;;;;;;;9.13;7.00;;;;;;;8.68;100.00;101697.88;6088799;23;20393;-69
2022/09/23 05:48:12;;;;;;;7.37;6.67;;;;;;;8.99;100.00;101760.47;6118962;23;20527;-69
2022/09/23 05:50:37;;;;;;;7.93;6.27;;;;;;;8.44;100.00;101658.59;6118688;23;20169;-68
2022/09/23 05:53:02;;;;;;;7.13;6.30;;;;;;;8.79;100.00;101692.22;6115484;23;20182;-69
2022/09/23 05:55:28;;;;;;;6.50;5.90;;;;;;;8.92;100.00;101735.38;6115896;23;20198;-68
2022/09/23 05:57:53;;;;;;;9.20;6.30;;;;;;;8.14;100.00;101602.03;6090069;23;20505;-68
2022/09/23 06:00:19;;;;;;;7.33;6.53;;;;;;;8.85;100.00;101760.28;6093186;23;20213;-69
2022/09/23 06:02:47;;;;;;;7.33;6.30;;;;;;;8.91;100.00;101719.47;6118259;23;20182;-69
2022/09/23 06:05:13;;;;;;;6.63;6.00;;;;;;;8.77;100.00;101710.28;6090778;23;20213;-69
2022/09/23 06:07:39;;;;;;;7.03;5.93;;;;;;;8.60;100.00;101690.72;6093249;23;20400;-69
2022/09/23 06:10:05;;;;;;;7.33;5.90;;;;;;;8.92;100.00;101745.25;6094326;23;20398;-68
2022/09/23 06:12:31;;;;;;;7.13;6.00;;;;;;;8.37;100.00;101663.72;6114006;23;20727;-68
2022/09/23 06:14:57;;;;;;;7.50;6.40;;;;;;;9.05;100.00;101741.09;6088013;23;20381;-68
2022/09/23 06:17:22;;;;;;;6.33;5.70;;;;;;;8.29;100.00;101600.38;6087836;23;20200;-69
2022/09/23 06:19:48;;;;;;;8.10;5.97;;;;;;;8.35;100.00;101636.31;6090089;23;20161;-69
2022/09/23 06:22:15;;;;;;;9.13;5.83;;;;;;;8.37;100.00;101634.31;6089887;23;20321;-68
2022/09/23 06:24:41;;;;;;;8.50;6.33;;;;;;;9.15;100.00;101750.78;6089635;23;20256;-68
2022/09/23 06:27:08;;;;;;;6.50;5.70;;;;;;;8.47;100.00;101629.69;6091417;23;20947;-68
2022/09/23 06:29:35;;;;;;;7.80;6.90;;;;;;;9.22;100.00;101744.56;6117545;23;20494;-68
2022/09/23 06:32:00;;;;;;;7.87;7.07;;;;;;;8.81;100.00;101656.28;6089689;23;20884;-68
2022/09/23 06:34:26;;;;;;;8.60;6.43;;;;;;;9.34;100.00;101744.25;6115921;23;20370;-68
2022/09/23 06:36:52;;;;;;;8.37;6.47;;;;;;;8.80;100.00;101622.50;6115763;23;20186;-68
2022/09/23 06:39:18;;;;;;;7.97;5.57;;;;;;;8.90;100.00;101629.53;6091529;23;20173;-68
2022/09/23 06:41:44;;;;;;;8.33;5.70;;;;;;;9.02;100.00;101654.94;6115599;23;20402;-68
2022/09/23 06:44:09;;;;;;;5.77;5.17;;;;;;;9.20;100.00;101649.38;6091333;23;20767;-68
2022/09/23 06:46:35;;;;;;;6.97;5.57;;;;;;;9.22;100.00;101650.06;6093137;23;20165;-68
2022/09/23 06:49:01;;;;;;;8.50;6.43;;;;;;;9.82;100.00;101735.28;6117884;23;20158;-68
2022/09/23 06:51:27;;;;;;;8.03;5.30;;;;;;;9.65;100.00;101648.78;6087985;23;20854;-68
2022/09/23 06:53:52;;;;;;;8.27;5.93;;;;;;;9.80;100.00;101669.47;6113772;23;20384;-68
2022/09/23 06:56:19;;;;;;;6.30;5.70;;;;;;;10.08;100.00;101727.00;6092615;23;20244;-68
2022/09/23 06:58:45;;;;;;;6.97;6.27;;;;;;;9.86;100.00;101706.28;6117334;23;20526;-68
2022/09/23 07:01:16;;;;;;;10.30;6.37;;;;;;;9.34;100.00;101587.09;6116459;23;20444;-68
2022/09/23 07:03:43;;;;;;;7.10;5.97;;;;;;;10.25;100.00;101733.13;6118668;23;20424;-68
2022/09/23 07:06:08;;;;;;;8.03;5.90;;;;;;;10.14;100.00;101706.69;6119079;23;20386;-68
2022/09/23 07:08:34;;;;;;;7.50;6.23;;;;;;;10.30;100.00;101732.63;6093389;23;21164;-68
2022/09/23 07:11:03;;;;;;;7.30;6.47;;;;;;;10.26;100.00;101685.69;6116605;23;20169;-68
2022/09/23 07:13:29;;;;;;;7.33;5.90;;;;;;;10.41;100.00;101710.78;6090879;23;20382;-68
2022/09/23 07:15:57;;;;;;;6.50;5.40;;;;;;;10.56;100.00;101698.28;6091066;23;20899;-68
2022/09/23 07:18:24;;;;;;;11.83;6.03;;;;;;;10.76;100.00;101728.19;6093647;23;20601;-68
2022/09/23 07:20:53;;;;;;;6.87;6.17;;;;;;;10.19;100.00;101643.50;6093483;23;20390;-68
2022/09/23 07:23:19;;;;;;;7.40;5.57;;;;;;;10.70;100.00;101730.72;6115625;23;20382;-68
2022/09/23 07:25:45;;;;;;;6.63;6.03;;;;;;;10.80;100.00;101724.13;6091490;23;20440;-68
2022/09/23 07:28:11;;;;;;;7.13;5.70;;;;;;;10.90;100.00;101726.53;6088646;23;20268;-68
2022/09/23 07:30:38;;;;;;;8.30;6.53;;;;;;;11.05;100.00;101721.22;6115704;23;20386;-68
2022/09/23 07:33:04;;;;;;;10.63;7.23;;;;;;;10.87;100.00;101705.44;6115097;23;20489;-68
2022/09/23 07:35:29;;;;;;;10.60;6.90;;;;;;;10.63;100.00;101664.34;6113331;23;20448;-69
2022/09/23 07:37:55;;;;;;;7.40;6.70;;;;;;;10.34;100.00;101599.88;6120418;23;20241;-68
2022/09/23 07:40:20;;;;;;;7.50;5.83;;;;;;;10.08;100.00;101514.41;6094983;23;20161;-68
2022/09/23 07:42:46;;;;;;;7.33;6.20;;;;;;;11.38;100.00;101707.53;6117285;23;20296;-68
2022/09/23 07:45:12;;;;;;;9.60;6.80;;;;;;;10.60;100.00;101618.28;6117138;23;20248;-68
2022/09/23 07:47:38;;;;;;;7.60;6.80;;;;;;;11.43;100.00;101705.97;6117295;23;20389;-68
2022/09/23 07:50:05;;;;;;;8.10;6.40;;;;;;;10.85;100.00;101608.19;6092447;23;20165;-68
2022/09/23 07:52:30;;;;;;;7.73;5.67;;;;;;;11.68;100.00;101687.72;6114856;23;20413;-68
2022/09/23 07:54:56;;;;;;;9.60;6.83;;;;;;;11.67;100.00;101709.41;6115157;23;20378;-68
2022/09/23 07:57:21;;;;;;;9.67;6.67;;;;;;;11.68;100.00;101681.50;6120487;23;20498;-68
2022/09/23 07:59:46;;;;;;;7.80;6.90;;;;;;;11.92;100.00;101713.53;6090674;23;20180;-68
2022/09/23 08:02:14;;;;;;;8.40;6.60;;;;;;;11.56;100.00;101622.03;6114206;23;20189;-68
2022/09/23 08:04:39;;;;;;;8.83;6.53;;;;;;;11.64;100.00;101624.63;6118577;23;20213;-68
2022/09/23 08:07:05;;;;;;;7.53;6.73;;;;;;;12.18;100.00;101702.28;6093585;23;20389;-68
2022/09/23 08:09:40;;;;;;;10.40;6.73;;;;;;;12.34;100.00;101706.59;6118852;23;20154;-68
2022/09/23 08:12:07;;;;;;;8.83;6.27;;;;;;;12.42;100.00;101701.09;6091834;23;20177;-68
2022/09/23 08:14:32;;;;;;;9.27;7.13;;;;;;;11.33;100.00;101579.16;6093154;23;20386;-68
2022/09/23 08:16:58;;;;;;;7.83;6.80;;;;;;;11.60;100.00;101601.84;6117876;23;20374;-68
2022/09/23 08:19:23;;;;;;;9.87;6.03;;;;;;;11.72;100.00;101578.00;6087077;23;20328;-68
2022/09/23 08:21:50;;;;;;;7.83;7.03;;;;;;;12.33;100.00;101682.59;6117029;23;20587;-68
2022/09/23 08:24:22;;;;;;;15.30;7.60;;;;;;;12.32;100.00;101716.69;6092086;23;20505;-68
2022/09/23 08:26:53;;;;;;;10.10;7.00;;;;;;;11.81;100.00;101616.38;6092950;23;20441;-68
2022/09/23 08:29:23;;;;;;;10.37;6.87;;;;;;;12.34;100.00;101700.38;6116904;23;20400;-68
2022/09/23 08:31:49;;;;;;;8.17;6.47;;;;;;;12.28;100.00;101671.56;6117656;23;20493;-68
2022/09/23 08:34:17;;;;;;;7.80;6.70;;;;;;;12.34;100.00;101703.06;6094537;23;20421;-68
2022/09/23 08:36:42;;;;;;;8.50;7.10;;;;;;;12.34;100.00;101682.38;6094281;23;20397;-68
2022/09/23 08:39:13;;;;;;;13.47;7.07;;;;;;;12.43;100.00;101694.69;6118884;23;20498;-69
2022/09/23 08:41:47;;;;;;;7.43;6.60;;;;;;;12.49;100.00;101697.66;6092721;23;20174;-68
2022/09/23 08:44:25;;;;;;;7.30;6.50;;;;;;;11.88;100.00;101603.84;6119887;23;20416;-68
2022/09/23 08:47:42;;;;;;;9.40;6.37;;;;;;;12.57;100.00;101705.59;6118306;23;20791;-68
2022/09/23 08:50:14;;;;;;;15.23;6.97;;;;;;;12.63;100.00;101696.75;6002882;23;20479;-68
2022/09/23 08:53:02;;;;;;;7.60;6.60;;;;;;;12.23;100.00;101599.47;6001428;23;20821;-68
2022/09/23 08:55:33;;;;;;;8.53;7.73;;;;;;;12.28;100.00;101615.06;6088002;23;20397;-68
2022/09/23 08:58:29;;;;;;;11.67;6.83;;;;;;;12.86;100.00;101686.63;6120061;23;20374;-68
2022/09/23 09:01:13;;;;;;;8.80;6.40;;;;;;;13.05;100.00;101684.31;6118581;23;20369;-68
2022/09/23 09:03:46;;;;;;;8.30;7.17;;;;;;;12.93;100.00;101678.63;6115685;23;20628;-69
2022/09/23 09:06:17;;;;;;;9.33;7.07;;;;;;;13.01;100.00;101686.56;6118765;23;20385;-69
2022/09/23 09:08:45;;;;;;;10.30;6.60;;;;;;;12.48;100.00;101605.31;6121337;23;20362;-69
2022/09/23 09:11:13;;;;;;;10.30;7.13;;;;;;;13.01;100.00;101653.41;6117609;23;20912;-69
2022/09/23 09:13:52;;;;;;;8.60;6.90;;;;;;;12.87;100.00;101586.00;6093544;23;20480;-69
2022/09/23 09:16:45;;;;;;;7.10;5.87;;;;;;;13.71;100.00;101668.66;6093076;23;20384;-69
2022/09/23 09:19:19;;;;;;;8.13;6.70;;;;;;;13.11;100.00;101575.81;6093117;23;20695;-69
2022/09/23 09:21:49;;;;;;;9.27;6.00;;;;;;;13.11;100.00;101552.38;6119793;23;20437;-69
2022/09/23 09:24:31;;;;;;;9.07;6.20;;;;;;;13.90;100.00;101671.63;6115270;23;20829;-69
2022/09/23 09:26:56;;;;;;;8.77;7.03;;;;;;;12.82;100.00;101523.00;6119264;23;20370;-69
2022/09/23 09:29:30;;;;;;;6.30;5.70;;;;;;;13.16;100.00;101548.25;6114812;23;20393;-69
2022/09/23 09:31:56;;;;;;;8.47;6.50;;;;;;;13.83;100.00;101657.25;6119458;23;20173;-69
2022/09/23 09:34:37;;;;;;;7.97;7.00;;;;;;;13.16;100.00;101569.81;6087744;23;20679;-69
2022/09/23 09:37:22;;;;;;;7.63;6.20;;;;;;;13.77;100.00;101650.84;6090944;23;20146;-69
2022/09/23 09:39:47;;;;;;;7.73;6.43;;;;;;;13.33;100.00;101593.56;6116761;23;20373;-69
2022/09/23 09:42:23;;;;;;;6.70;6.10;;;;;;;13.81;100.00;101662.03;6117911;23;20409;-69
2022/09/23 09:44:57;;;;;;;8.70;7.03;;;;;;;13.33;100.00;101577.41;6089897;23;20823;-69
2022/09/23 09:47:57;;;;;;;8.20;6.73;;;;;;;13.75;100.00;101659.13;6118704;23;20395;-69
2022/09/23 09:50:47;;;;;;;9.10;5.83;;;;;;;13.74;100.00;101660.16;6117579;23;20892;-69
2022/09/23 09:53:23;;;;;;;8.13;6.17;;;;;;;13.29;100.00;101592.31;6093697;23;20390;-69
2022/09/23 09:56:03;;;;;;;7.00;6.30;;;;;;;13.84;100.00;101653.56;6116710;23;20793;-70
2022/09/23 09:58:58;;;;;;;10.17;6.80;;;;;;;13.60;100.00;101644.09;6118511;23;20373;-69
2022/09/23 10:01:27;;;;;;;11.83;6.50;;;;;;;13.68;100.00;101647.47;6082472;23;20483;-69
2022/09/23 10:03:55;;;;;;;7.10;5.57;;;;;;;13.78;100.00;101653.31;6118300;23;20716;-69
2022/09/23 10:06:26;;;;;;;9.07;6.80;;;;;;;12.99;100.00;101555.81;6090797;23;21338;-69
2022/09/23 10:09:03;;;;;;;8.87;6.23;;;;;;;13.47;100.00;101615.22;6120125;23;20370;-69
2022/09/23 10:11:29;;;;;;;6.60;5.90;;;;;;;12.99;100.00;101540.50;6092020;23;20413;-69
2022/09/23 10:14:17;;;;;;;8.13;6.93;;;;;;;13.72;100.00;101626.34;6117624;23;20396;-69
2022/09/23 10:16:45;;;;;;;6.60;5.90;;;;;;;13.21;100.00;101548.50;6092536;23;20769;-69
2022/09/23 10:19:13;;;;;;;7.47;5.73;;;;;;;13.32;100.00;101556.06;6122089;23;20697;-70
2022/09/23 10:21:41;;;;;;;8.20;5.63;;;;;;;13.83;100.00;101635.69;6122166;23;20401;-66
2022/09/23 10:24:07;;;;;;;7.13;6.43;;;;;;;13.81;100.00;101621.59;6094449;23;20473;-66
2022/09/23 10:26:43;;;;;;;6.10;5.50;;;;;;;12.98;100.00;101474.19;6095849;23;20747;-67
2022/09/23 10:29:36;;;;;;;7.60;6.00;;;;;;;13.99;100.00;101622.69;6121839;23;20377;-67
2022/09/23 10:32:26;;;;;;;8.10;6.20;;;;;;;14.08;100.00;101614.44;6109263;23;20742;-67
2022/09/23 10:35:13;;;;;;;8.90;7.10;;;;;;;13.98;100.00;101620.22;6096317;23;20402;-66
2022/09/23 10:37:41;;;;;;;8.00;6.27;;;;;;;14.14;100.00;101622.53;6095620;23;20849;-67
2022/09/23 10:46:38;;;;;;;7.60;6.23;;;;;;;14.43;100.00;101634.03;6122257;23;20437;-67
2022/09/23 10:49:36;;;;;;;9.07;7.07;;;;;;;14.23;100.00;101598.88;6096139;23;20469;-67
2022/09/23 10:52:10;;;;;;;11.30;7.60;;;;;;;14.49;100.00;101627.78;6095325;23;20408;-67
2022/09/23 10:54:48;;;;;;;7.53;6.50;;;;;;;14.55;100.00;101623.47;6120506;23;20369;-67
2022/09/23 10:57:44;;;;;;;7.70;6.90;;;;;;;14.42;100.00;101616.16;6096287;23;20400;-67
2022/09/23 11:00:28;;;;;;;11.27;7.20;;;;;;;14.54;100.00;101609.16;6121561;23;20358;-67
2022/09/23 11:03:15;;;;;;;13.03;6.87;;;;;;;14.54;100.00;101605.63;6131430;23;20440;-70
2022/09/23 11:05:59;;;;;;;9.50;7.27;;;;;;;14.67;100.00;101603.78;6149050;23;20440;-71
2022/09/23 11:08:32;;;;;;;7.27;6.37;;;;;;;14.79;100.00;101597.75;6150250;23;20361;-70
2022/09/23 11:11:32;;;;;;;9.63;6.13;;;;;;;14.82;100.00;101600.88;6150488;23;20932;-70
2022/09/23 11:14:26;;;;;;;8.97;6.20;;;;;;;14.79;100.00;101597.75;6095285;23;20381;-70
2022/09/23 11:17:14;;;;;;;9.57;5.97;;;;;;;14.74;100.00;101584.03;6121334;23;20372;-70
2022/09/23 11:20:17;;;;;;;6.00;5.30;;;;;;;14.38;100.00;101534.78;6122195;23;20394;-71
2022/09/23 11:22:48;;;;;;;6.17;5.43;;;;;;;14.92;100.00;101595.03;6121460;23;20496;-70
2022/09/23 11:25:26;;;;;;;6.97;4.90;;;;;;;14.87;100.00;101584.88;6119557;23;20421;-70
2022/09/23 11:28:07;;;;;;;7.87;5.27;;;;;;;14.77;100.00;101587.16;6095498;23;20798;-70
2022/09/23 11:30:57;;;;;;;7.33;5.97;;;;;;;14.79;100.00;101589.66;6122346;23;20377;-71
2022/09/23 11:33:38;;;;;;;10.13;5.60;;;;;;;14.76;100.00;101584.66;6121863;23;20424;-71
2022/09/23 11:36:07;;;;;;;13.90;6.37;;;;;;;14.69;100.00;101571.16;6119478;23;20365;-70
2022/09/23 11:38:47;;;;;;;5.80;5.30;;;;;;;14.84;100.00;101581.72;6095095;23;20390;-70
2022/09/23 11:41:22;;;;;;;6.77;6.07;;;;;;;14.95;100.00;101591.09;6123116;23;20366;-70
2022/09/23 11:43:54;;;;;;;8.97;5.80;;;;;;;14.85;100.00;101588.81;6119417;23;20411;-70
2022/09/23 11:46:22;;;;;;;9.13;6.47;;;;;;;14.89;100.00;101585.47;6121533;23;20699;-70
2022/09/23 11:49:14;;;;;;;7.87;5.90;;;;;;;14.88;100.00;101577.59;6123165;23;20492;-69
2022/09/23 11:52:07;;;;;;;7.77;5.63;;;;;;;15.06;100.00;101582.34;6025191;23;20884;-70